sensor_id;sensor_type;location;lat;lon;timestamp;temperature;humidity
25154;DHT22;47555;51.038;6.280;2023-07-13T00:01:29;14.70;92.50
25154;DHT22;47555;51.038;6.280;2023-07-13T00:03:56;14.70;93.30
25154;DHT22;47555;51.038;6.280;2023-07-13T00:06:22;14.60;93.30
25154;DHT22;47555;51.038;6.280;2023-07-13T00:08:48;14.60;93.70
25154;DHT22;47555;51.038;6.280;2023-07-13T00:11:15;14.60;94.30
25154;DHT22;47555;51.038;6.280;2023-07-13T00:13:41;14.60;94.40
25154;DHT22;47555;51.038;6.280;2023-07-13T00:16:08;14.60;94.40
25154;DHT22;47555;51.038;6.280;2023-07-13T06:26:24;16.90;99.90
25154;DHT22;47555;51.038;6.280;2023-07-13T06:28:50;17.10;99.90
25154;DHT22;47555;51.038;6.280;2023-07-13T06:31:15;17.10;99.90
25154;DHT22;47555;51.038;6.280;2023-07-13T06:33:41;17.10;99.90
25154;DHT22;47555;51.038;6.280;2023-07-13T06:36:08;17.10;99.90
25154;DHT22;47555;51.038;6.280;2023-07-13T06:38:34;17.10;99.90
25154;DHT22;47555;51.038;6.280;2023-07-13T06:41:00;17.20;99.90
25154;DHT22;47555;51.038;6.280;2023-07-13T06:43:28;17.20;99.90
25154;DHT22;47555;51.038;6.280;2023-07-13T06:45:56;17.30;99.90
25154;DHT22;47555;51.038;6.280;2023-07-13T06:48:22;17.40;99.90
25154;DHT22;47555;51.038;6.280;2023-07-13T06:50:48;17.50;99.90
25154;DHT22;47555;51.038;6.280;2023-07-13T07:08:16;17.40;99.90
25154;DHT22;47555;51.038;6.280;2023-07-13T07:10:42;18.10;99.40
25154;DHT22;47555;51.038;6.280;2023-07-13T07:13:07;18.20;99.20
25154;DHT22;47555;51.038;6.280;2023-07-13T07:15:34;18.20;98.70
25154;DHT22;47555;51.038;6.280;2023-07-13T07:18:00;18.20;97.90
25154;DHT22;47555;51.038;6.280;2023-07-13T07:20:31;18.30;97.70
25154;DHT22;47555;51.038;6.280;2023-07-13T07:22:58;18.30;98.00
25154;DHT22;47555;51.038;6.280;2023-07-13T07:25:23;18.30;98.10
25154;DHT22;47555;51.038;6.280;2023-07-13T07:27:49;18.20;99.20
25154;DHT22;47555;51.038;6.280;2023-07-13T07:30:14;18.20;99.30
25154;DHT22;47555;51.038;6.280;2023-07-13T07:32:40;18.20;99.00
25154;DHT22;47555;51.038;6.280;2023-07-13T07:35:07;18.20;99.50
25154;DHT22;47555;51.038;6.280;2023-07-13T07:37:32;18.20;99.90
25154;DHT22;47555;51.038;6.280;2023-07-13T07:39:58;18.10;99.90
25154;DHT22;47555;51.038;6.280;2023-07-13T07:42:26;18.20;99.90
25154;DHT22;47555;51.038;6.280;2023-07-13T07:44:51;18.20;99.90
25154;DHT22;47555;51.038;6.280;2023-07-13T07:47:17;18.30;99.90
25154;DHT22;47555;51.038;6.280;2023-07-13T07:49:42;18.40;99.90
25154;DHT22;47555;51.038;6.280;2023-07-13T07:52:08;18.40;99.90
25154;DHT22;47555;51.038;6.280;2023-07-13T07:54:34;18.50;99.90
25154;DHT22;47555;51.038;6.280;2023-07-13T07:57:02;18.60;99.90
25154;DHT22;47555;51.038;6.280;2023-07-13T07:59:28;18.70;99.90
25154;DHT22;47555;51.038;6.280;2023-07-13T08:01:53;18.70;98.20
25154;DHT22;47555;51.038;6.280;2023-07-13T08:04:19;18.70;98.20
25154;DHT22;47555;51.038;6.280;2023-07-13T08:06:47;18.80;98.60
25154;DHT22;47555;51.038;6.280;2023-07-13T08:09:13;18.80;98.80
25154;DHT22;47555;51.038;6.280;2023-07-13T08:11:38;18.90;99.00
25154;DHT22;47555;51.038;6.280;2023-07-13T08:14:04;18.80;97.50
25154;DHT22;47555;51.038;6.280;2023-07-13T08:16:29;18.90;96.90
25154;DHT22;47555;51.038;6.280;2023-07-13T08:18:55;18.90;96.80
25154;DHT22;47555;51.038;6.280;2023-07-13T08:21:20;18.90;96.90
25154;DHT22;47555;51.038;6.280;2023-07-13T08:23:47;19.00;97.10
25154;DHT22;47555;51.038;6.280;2023-07-13T08:26:12;19.10;97.20
25154;DHT22;47555;51.038;6.280;2023-07-13T08:28:38;19.30;95.00
25154;DHT22;47555;51.038;6.280;2023-07-13T08:31:05;19.30;94.80
25154;DHT22;47555;51.038;6.280;2023-07-13T08:33:31;19.40;93.40
25154;DHT22;47555;51.038;6.280;2023-07-13T08:35:57;19.50;93.80
25154;DHT22;47555;51.038;6.280;2023-07-13T08:38:22;19.60;90.80
25154;DHT22;47555;51.038;6.280;2023-07-13T08:40:52;19.80;91.80
25154;DHT22;47555;51.038;6.280;2023-07-13T08:43:23;20.00;89.70
25154;DHT22;47555;51.038;6.280;2023-07-13T08:45:54;20.00;86.20
25154;DHT22;47555;51.038;6.280;2023-07-13T08:48:38;20.10;85.70
25154;DHT22;47555;51.038;6.280;2023-07-13T08:54:00;20.20;88.10
25154;DHT22;47555;51.038;6.280;2023-07-13T08:56:28;20.30;87.50
25154;DHT22;47555;51.038;6.280;2023-07-13T08:59:03;20.30;87.20
25154;DHT22;47555;51.038;6.280;2023-07-13T09:04:22;20.60;84.30
25154;DHT22;47555;51.038;6.280;2023-07-13T09:09:55;20.80;85.90
25154;DHT22;47555;51.038;6.280;2023-07-13T09:15:30;21.00;80.80
25154;DHT22;47555;51.038;6.280;2023-07-13T09:18:03;21.00;80.70
25154;DHT22;47555;51.038;6.280;2023-07-13T09:20:43;21.00;80.00
25154;DHT22;47555;51.038;6.280;2023-07-13T09:23:14;21.10;82.90
25154;DHT22;47555;51.038;6.280;2023-07-13T09:25:41;21.20;81.00
25154;DHT22;47555;51.038;6.280;2023-07-13T09:28:12;21.20;78.80
25154;DHT22;47555;51.038;6.280;2023-07-13T09:30:49;21.20;79.80
25154;DHT22;47555;51.038;6.280;2023-07-13T09:33:19;21.30;84.20
25154;DHT22;47555;51.038;6.280;2023-07-13T09:35:44;21.50;80.40
